Time;durP1;ratioP1;P1;durP2;ratioP2;P2;SDS_P1;SDS_P2;PMS_P1;PMS_P2;Temp;Humidity;BMP_temperature;BMP_pressure;BME280_temperature;BME280_humidity;BME280_pressure;Samples;Min_cycle;Max_cycle;Signal;HPM_P1;HPM_P2
2021/06/27 00:02:15;;;;;;;3.97;1.48;;;;;;;15.59;73.03;100731.66;5023552;28;20026;-67
2021/06/27 00:04:40;;;;;;;3.05;1.40;;;;;;;15.61;73.15;100737.72;5023315;28;20113;-68
2021/06/27 00:07:06;;;;;;;4.65;2.10;;;;;;;15.58;73.05;100732.56;5023393;28;20018;-67
2021/06/27 00:09:32;;;;;;;7.47;2.08;;;;;;;15.62;73.14;100738.59;5023266;28;20033;-68
2021/06/27 00:11:57;;;;;;;3.92;1.92;;;;;;;15.64;72.94;100742.00;5023262;28;20042;-67
2021/06/27 00:14:23;;;;;;;6.15;1.85;;;;;;;15.67;73.11;100741.09;5005498;28;20022;-66
2021/06/27 00:16:52;;;;;;;4.00;2.00;;;;;;;15.64;73.13;100735.94;5023450;28;20022;-67
2021/06/27 00:19:19;;;;;;;5.65;2.15;;;;;;;15.60;73.23;100738.63;5023189;28;20040;-67
2021/06/27 00:21:45;;;;;;;4.20;2.85;;;;;;;15.55;73.63;100737.84;5024122;28;20033;-67
2021/06/27 00:24:10;;;;;;;4.47;2.30;;;;;;;15.61;73.68;100747.31;5009289;28;20246;-66
2021/06/27 00:26:36;;;;;;;3.30;2.25;;;;;;;15.64;73.22;100747.22;5027003;28;20541;-67
2021/06/27 00:29:01;;;;;;;3.80;2.50;;;;;;;15.64;73.50;100738.53;5027066;28;20053;-67
2021/06/27 00:31:27;;;;;;;7.45;3.28;;;;;;;15.64;73.48;100738.53;5008978;28;20474;-68
2021/06/27 00:33:52;;;;;;;6.65;3.00;;;;;;;15.62;73.55;100735.97;5026779;28;20030;-67
2021/06/27 00:36:17;;;;;;;7.45;3.50;;;;;;;15.59;74.14;100734.25;5026416;28;20025;-67
2021/06/27 00:38:43;;;;;;;8.23;4.45;;;;;;;15.58;74.11;100742.16;5026855;28;20026;-67
2021/06/27 00:41:08;;;;;;;7.40;3.83;;;;;;;15.58;74.24;100736.91;5026702;28;20049;-67
2021/06/27 00:43:34;;;;;;;9.32;3.72;;;;;;;15.54;74.25;100741.38;5026617;28;20021;-66
2021/06/27 00:46:00;;;;;;;10.32;4.38;;;;;;;15.40;74.54;100718.13;5026241;28;20479;-67
2021/06/27 00:48:26;;;;;;;14.02;4.63;;;;;;;15.45;74.67;100738.97;5026528;28;20389;-67
2021/06/27 00:50:55;;;;;;;6.50;4.10;;;;;;;15.38;74.94;100746.13;5026309;28;20030;-66
2021/06/27 00:53:21;;;;;;;8.88;3.50;;;;;;;15.35;74.91;100739.19;5026156;28;20026;-68
2021/06/27 00:55:54;;;;;;;6.80;3.40;;;;;;;15.36;74.69;100747.91;5008681;28;20022;-68
2021/06/27 00:58:27;;;;;;;4.25;3.40;;;;;;;15.30;74.92;100728.00;5008561;28;20049;-67
2021/06/27 01:00:53;;;;;;;5.78;3.22;;;;;;;15.38;74.48;100734.78;5026264;28;20046;-67
2021/06/27 01:03:18;;;;;;;8.00;3.75;;;;;;;15.36;74.49;100735.69;5026089;28;20354;-68
2021/06/27 01:05:44;;;;;;;7.10;3.70;;;;;;;15.35;74.64;100741.78;5026088;28;20024;-67
2021/06/27 01:08:10;;;;;;;5.40;3.30;;;;;;;15.33;74.63;100740.13;5026043;28;20017;-66
2021/06/27 01:10:36;;;;;;;6.47;3.22;;;;;;;15.30;74.73;100733.22;5008350;28;20022;-68
2021/06/27 01:13:02;;;;;;;5.18;3.70;;;;;;;15.28;74.94;100745.47;5026245;28;20037;-67
2021/06/27 01:15:28;;;;;;;6.38;3.67;;;;;;;15.33;74.75;100734.88;5026068;28;20025;-66
2021/06/27 01:17:55;;;;;;;9.00;4.13;;;;;;;15.30;74.96;100748.91;5008326;28;20032;-67
2021/06/27 01:20:23;;;;;;;8.07;4.10;;;;;;;15.24;75.14;100733.31;5025708;28;20014;-67
2021/06/27 01:22:50;;;;;;;9.63;3.17;;;;;;;15.24;75.30;100728.09;5025969;28;20608;-67
2021/06/27 01:25:24;;;;;;;10.98;4.40;;;;;;;15.22;75.23;100725.50;5025893;28;20049;-66
2021/06/27 01:27:50;;;;;;;14.45;5.50;;;;;;;15.20;75.47;100727.31;5008083;28;20052;-66
2021/06/27 01:30:16;;;;;;;6.53;3.30;;;;;;;15.18;75.46;100730.84;5025849;28;20029;-67
2021/06/27 01:32:44;;;;;;;6.63;3.15;;;;;;;15.24;75.49;100738.56;5025518;28;20030;-67
2021/06/27 01:35:13;;;;;;;10.00;4.35;;;;;;;15.23;75.47;100726.38;5025206;28;20033;-67
2021/06/27 01:37:43;;;;;;;6.68;3.00;;;;;;;15.20;75.39;100732.56;5025521;28;20058;-67
2021/06/27 01:40:10;;;;;;;9.43;3.47;;;;;;;15.13;75.51;100727.50;5023418;28;20124;-67
2021/06/27 01:42:35;;;;;;;6.25;3.38;;;;;;;15.10;75.51;100728.41;5024488;28;20032;-67
2021/06/27 01:45:26;;;;;;;11.23;3.20;;;;;;;15.08;75.43;100735.44;5025318;28;20079;-67
2021/06/27 01:48:01;;;;;;;5.40;2.78;;;;;;;15.01;75.56;100732.09;5025403;28;20080;-67
2021/06/27 01:50:28;;;;;;;5.93;2.50;;;;;;;14.97;75.57;100739.16;5024406;28;20025;-67
2021/06/27 01:52:58;;;;;;;9.05;3.47;;;;;;;14.94;75.77;100736.59;5024335;28;20037;-67
2021/06/27 01:55:24;;;;;;;8.38;3.10;;;;;;;14.96;75.58;100739.19;5024659;28;20026;-67
2021/06/27 01:57:51;;;;;;;7.43;2.63;;;;;;;14.93;75.51;100728.78;5007590;28;20030;-68
2021/06/27 02:00:17;;;;;;;5.63;2.88;;;;;;;14.88;75.52;100731.50;5007250;28;20042;-67
2021/06/27 02:02:43;;;;;;;5.97;2.67;;;;;;;14.88;75.52;100728.88;5025125;28;20041;-67
2021/06/27 02:05:10;;;;;;;6.75;2.72;;;;;;;14.91;75.56;100725.34;5024764;28;20029;-67
2021/06/27 02:07:37;;;;;;;8.75;2.90;;;;;;;14.93;75.24;100723.56;5025138;28;20446;-68
2021/06/27 02:10:07;;;;;;;6.75;2.60;;;;;;;14.95;75.38;100721.78;5024952;28;20030;-67
2021/06/27 02:12:32;;;;;;;7.15;3.40;;;;;;;14.98;75.14;100716.50;5007528;28;20474;-68
2021/06/27 02:14:58;;;;;;;7.30;3.05;;;;;;;14.97;75.07;100709.53;5023652;28;20032;-67
2021/06/27 02:17:23;;;;;;;5.75;3.20;;;;;;;14.98;75.28;100706.03;5024811;28;20022;-67
2021/06/27 02:19:54;;;;;;;8.55;3.47;;;;;;;14.97;75.14;100709.53;5024582;28;20026;-67
2021/06/27 02:22:20;;;;;;;8.27;3.67;;;;;;;14.96;75.30;100713.91;5024969;28;20033;-66
2021/06/27 02:24:46;;;;;;;6.32;3.20;;;;;;;14.89;75.56;100701.00;5023291;28;20057;-66
2021/06/27 02:27:11;;;;;;;10.23;3.20;;;;;;;14.93;75.62;100713.09;5024727;28;20076;-67
2021/06/27 02:29:36;;;;;;;8.13;3.47;;;;;;;14.96;75.62;100711.28;5024435;28;20048;-66
2021/06/27 02:32:04;;;;;;;6.90;3.35;;;;;;;14.96;75.64;100706.06;5023451;28;20359;-66
2021/06/27 02:34:30;;;;;;;6.97;3.17;;;;;;;14.91;75.45;100701.81;5023050;28;20068;-66
2021/06/27 02:36:55;;;;;;;7.38;3.05;;;;;;;14.91;75.70;100704.44;5024211;28;20026;-66
2021/06/27 02:39:21;;;;;;;6.10;2.85;;;;;;;14.94;75.51;100699.13;5024377;28;20026;-66
2021/06/27 02:41:46;;;;;;;4.75;3.00;;;;;;;14.92;75.42;100704.41;5023012;28;20018;-66
2021/06/27 02:44:11;;;;;;;6.30;3.38;;;;;;;14.81;75.60;100703.78;5024120;28;20029;-66
2021/06/27 02:46:38;;;;;;;4.57;2.90;;;;;;;14.81;75.82;100709.84;5022365;28;20049;-65
2021/06/27 02:49:03;;;;;;;4.93;3.17;;;;;;;14.79;75.96;100711.63;5006367;28;20022;-66
2021/06/27 02:51:29;;;;;;;7.55;3.20;;;;;;;14.85;75.63;100705.44;5006487;28;20058;-66
2021/06/27 02:53:54;;;;;;;6.97;2.97;;;;;;;14.87;75.65;100709.72;5024351;28;20022;-66
2021/06/27 02:56:19;;;;;;;7.03;2.95;;;;;;;14.88;75.44;100697.53;5024092;28;20022;-66
2021/06/27 02:58:47;;;;;;;6.47;3.00;;;;;;;14.90;75.35;100698.34;5024103;28;20041;-66
2021/06/27 03:01:14;;;;;;;11.32;3.47;;;;;;;14.93;75.17;100698.28;5006388;28;20025;-66
2021/06/27 03:03:42;;;;;;;11.27;3.95;;;;;;;14.96;75.06;100702.59;5024157;28;20048;-66
2021/06/27 03:06:09;;;;;;;15.57;4.80;;;;;;;14.93;75.18;100690.44;5022329;28;20079;-66
2021/06/27 03:08:35;;;;;;;12.23;3.80;;;;;;;14.92;75.37;100699.16;5024036;28;20489;-66
2021/06/27 03:11:01;;;;;;;7.72;3.63;;;;;;;14.86;75.52;100692.34;5023968;28;20030;-66
2021/06/27 03:13:27;;;;;;;8.57;3.65;;;;;;;14.84;75.70;100704.56;5024052;28;20044;-67
2021/06/27 03:15:52;;;;;;;8.55;4.18;;;;;;;14.83;75.78;100704.59;5022567;28;20064;-67
2021/06/27 03:18:18;;;;;;;7.50;3.95;;;;;;;14.84;75.75;100709.78;5006303;28;20030;-67
2021/06/27 03:20:44;;;;;;;7.13;3.80;;;;;;;14.83;75.78;100700.25;5023739;28;20050;-66
2021/06/27 03:23:10;;;;;;;6.95;3.85;;;;;;;14.81;75.81;100704.63;5023921;28;20081;-67
2021/06/27 03:25:36;;;;;;;9.18;3.60;;;;;;;14.73;75.91;100698.66;5023628;28;20482;-65
2021/06/27 03:28:03;;;;;;;6.15;3.55;;;;;;;14.75;76.12;100700.38;5006195;28;20037;-66
2021/06/27 03:30:28;;;;;;;7.15;3.20;;;;;;;14.75;75.97;100695.16;5023723;28;20025;-66
2021/06/27 03:32:54;;;;;;;7.60;3.60;;;;;;;14.71;76.09;100698.69;5005915;28;20037;-66
2021/06/27 03:35:19;;;;;;;8.30;4.10;;;;;;;14.76;76.03;100701.22;5023561;28;20056;-66
2021/06/27 03:37:58;;;;;;;10.43;3.70;;;;;;;14.70;76.17;100691.75;5023478;28;20018;-66
2021/06/27 03:40:24;;;;;;;10.30;4.43;;;;;;;14.71;76.06;100700.47;5022251;28;20513;-66
2021/06/27 03:42:50;;;;;;;7.35;4.22;;;;;;;14.71;76.33;100692.63;5005849;28;20034;-66
2021/06/27 03:45:16;;;;;;;10.65;3.95;;;;;;;14.78;76.01;100691.59;5023545;28;20030;-66
2021/06/27 03:47:43;;;;;;;5.72;3.97;;;;;;;14.77;76.17;100686.41;5023987;28;20045;-66
2021/06/27 03:50:09;;;;;;;12.18;4.07;;;;;;;14.81;76.40;100698.56;5023286;28;20050;-66
2021/06/27 03:52:34;;;;;;;12.15;4.20;;;;;;;14.89;76.17;100691.41;5006008;28;20026;-66
2021/06/27 03:55:00;;;;;;;8.50;3.88;;;;;;;14.91;76.35;100691.34;5005879;28;20033;-66
2021/06/27 03:57:25;;;;;;;8.18;3.40;;;;;;;14.95;75.70;100680.78;5025662;28;20030;-66
2021/06/27 03:59:51;;;;;;;7.20;3.70;;;;;;;14.98;75.67;100685.94;5025634;28;20042;-67
2021/06/27 04:02:16;;;;;;;8.57;4.00;;;;;;;14.94;75.73;100678.22;5027496;28;20084;-67
2021/06/27 04:04:41;;;;;;;8.85;3.83;;;;;;;14.92;75.76;100672.19;5027172;28;20018;-67
2021/06/27 04:07:07;;;;;;;6.90;3.80;;;;;;;14.94;75.81;100684.31;5027142;28;20032;-66
2021/06/27 04:09:32;;;;;;;7.43;4.30;;;;;;;14.85;75.84;100679.28;5009369;28;20025;-66
2021/06/27 04:11:58;;;;;;;8.88;3.70;;;;;;;14.85;76.14;100679.28;5027190;28;20033;-67
2021/06/27 04:14:23;;;;;;;7.80;4.05;;;;;;;14.84;76.38;100681.03;5027241;28;20021;-66
2021/06/27 04:16:48;;;;;;;12.45;4.88;;;;;;;14.80;76.13;100676.78;5026878;28;20033;-67
2021/06/27 04:19:14;;;;;;;7.55;4.85;;;;;;;14.75;75.96;100670.75;5027062;28;20030;-66
2021/06/27 04:21:39;;;;;;;9.18;4.82;;;;;;;14.70;76.17;100670.84;5027208;28;20053;-67
2021/06/27 04:24:05;;;;;;;13.27;5.30;;;;;;;14.71;76.21;100671.72;5026863;28;20026;-67
2021/06/27 04:26:30;;;;;;;11.95;5.00;;;;;;;14.61;76.56;100658.88;5027235;28;20022;-67
2021/06/27 04:28:55;;;;;;;9.15;4.60;;;;;;;14.63;76.59;100664.91;5026831;28;20092;-66
2021/06/27 04:31:21;;;;;;;14.10;5.18;;;;;;;14.63;76.56;100670.13;5025407;28;20030;-67
2021/06/27 04:33:46;;;;;;;15.05;4.70;;;;;;;14.70;76.62;100670.84;5026796;28;20514;-66
2021/06/27 04:36:12;;;;;;;6.47;4.60;;;;;;;14.74;76.61;100671.66;5026403;28;20029;-67
2021/06/27 04:38:37;;;;;;;13.27;4.45;;;;;;;14.73;76.56;100662.94;5026907;28;20025;-66
2021/06/27 04:41:03;;;;;;;11.07;4.32;;;;;;;14.77;76.51;100666.38;5026622;28;20032;-67
2021/06/27 04:43:28;;;;;;;9.68;4.30;;;;;;;14.79;76.54;100669.81;5026640;28;20032;-67
2021/06/27 04:45:54;;;;;;;6.50;4.10;;;;;;;14.82;76.62;100668.91;5026720;28;20244;-67
2021/06/27 04:48:19;;;;;;;12.50;5.30;;;;;;;14.87;76.36;100667.06;5026629;28;20026;-67
2021/06/27 04:50:46;;;;;;;6.20;4.07;;;;;;;14.90;76.23;100663.50;5026478;28;20029;-67
2021/06/27 04:53:14;;;;;;;6.95;4.53;;;;;;;14.93;75.98;100663.44;5026615;28;20032;-67
2021/06/27 04:55:39;;;;;;;9.65;4.03;;;;;;;14.96;76.18;100665.97;5026445;28;20029;-67
2021/06/27 04:58:05;;;;;;;9.50;4.10;;;;;;;14.99;75.94;100663.28;5026335;28;20076;-67
2021/06/27 05:00:30;;;;;;;7.70;4.05;;;;;;;15.01;76.13;100674.59;5008442;28;20437;-67
2021/06/27 05:02:56;;;;;;;9.80;4.15;;;;;;;15.04;76.07;100669.28;5026066;28;20045;-67
2021/06/27 05:05:21;;;;;;;7.57;3.80;;;;;;;15.08;75.79;100664.84;5026077;28;20034;-66
2021/06/27 05:07:46;;;;;;;7.72;4.07;;;;;;;15.06;75.65;100667.50;5025886;28;20018;-67
2021/06/27 05:10:12;;;;;;;10.18;3.80;;;;;;;14.97;76.01;100658.09;5025474;28;20035;-66
2021/06/27 05:12:37;;;;;;;7.13;3.80;;;;;;;14.98;75.99;100658.97;5026252;28;20033;-67
2021/06/27 05:15:03;;;;;;;10.93;4.00;;;;;;;14.98;75.91;100656.34;5026031;28;20085;-67
2021/06/27 05:17:28;;;;;;;7.57;4.40;;;;;;;15.03;76.13;100661.47;5026074;28;20291;-66
2021/06/27 05:19:54;;;;;;;9.70;4.07;;;;;;;15.01;75.76;100631.88;5025820;28;20033;-67
2021/06/27 05:22:19;;;;;;;9.52;5.07;;;;;;;15.06;75.82;100635.25;5025770;28;20045;-66
2021/06/27 05:24:45;;;;;;;9.30;4.57;;;;;;;15.15;75.59;100650.72;5025876;28;20025;-66
2021/06/27 05:27:10;;;;;;;8.65;4.63;;;;;;;15.13;75.18;100644.66;5025706;28;20026;-66
2021/06/27 05:29:35;;;;;;;8.38;4.60;;;;;;;15.15;75.31;100644.63;5025662;28;20026;-66
2021/06/27 05:32:02;;;;;;;9.52;4.63;;;;;;;15.06;75.10;100635.25;5025706;28;20470;-66
2021/06/27 05:34:29;;;;;;;13.80;5.10;;;;;;;15.06;75.55;100646.59;5008139;28;20186;-67
2021/06/27 05:36:56;;;;;;;11.82;4.70;;;;;;;15.05;75.57;100642.25;5025553;28;20030;-66
2021/06/27 05:39:23;;;;;;;11.05;5.18;;;;;;;15.08;75.58;100638.72;5025623;28;20033;-67
2021/06/27 05:41:49;;;;;;;9.68;4.72;;;;;;;15.13;75.45;100641.22;5025641;28;20040;-67
2021/06/27 05:44:14;;;;;;;11.15;5.30;;;;;;;15.15;75.36;100640.28;5025445;28;20089;-67
2021/06/27 05:46:39;;;;;;;9.73;5.93;;;;;;;15.13;75.23;100646.44;5025390;28;20112;-67
2021/06/27 05:49:06;;;;;;;9.88;4.50;;;;;;;15.08;75.03;100643.94;5025357;28;20029;-67
2021/06/27 05:51:32;;;;;;;8.05;4.40;;;;;;;15.09;75.10;100645.66;5025268;28;20028;-67
2021/06/27 05:53:58;;;;;;;8.27;4.18;;;;;;;15.08;74.86;100644.78;5025237;28;20030;-67
2021/06/27 05:56:23;;;;;;;8.20;3.63;;;;;;;15.11;74.61;100654.31;5025465;28;20045;-67
2021/06/27 05:58:49;;;;;;;7.50;3.85;;;;;;;15.07;74.68;100642.19;5025090;28;20072;-67
2021/06/27 06:01:17;;;;;;;6.57;4.10;;;;;;;15.06;74.72;100648.34;5023810;28;20026;-67
2021/06/27 06:03:43;;;;;;;9.35;4.78;;;;;;;15.10;74.60;100643.00;5007570;28;20041;-67
2021/06/27 06:06:10;;;;;;;11.10;4.80;;;;;;;15.10;74.82;100644.75;5024909;28;20140;-67
2021/06/27 06:08:40;;;;;;;10.30;4.20;;;;;;;15.13;74.48;100641.22;5007533;28;20030;-67
2021/06/27 06:11:07;;;;;;;5.63;4.07;;;;;;;15.12;74.78;100642.97;5024726;28;20053;-67
2021/06/27 06:13:32;;;;;;;9.85;4.47;;;;;;;15.14;74.94;100648.16;5025027;28;20048;-67
2021/06/27 06:15:57;;;;;;;8.63;4.40;;;;;;;15.17;74.77;100645.47;5025052;28;20085;-67
2021/06/27 06:18:23;;;;;;;8.75;4.85;;;;;;;15.21;74.68;100649.72;5007570;28;20026;-67
2021/06/27 06:20:48;;;;;;;10.65;5.28;;;;;;;15.23;75.00;100653.16;5024405;28;20025;-67
2021/06/27 06:23:13;;;;;;;11.02;4.57;;;;;;;15.26;74.53;100658.31;5024772;28;20025;-67
2021/06/27 06:25:39;;;;;;;11.52;5.22;;;;;;;15.28;74.65;100647.81;5024836;28;20026;-67
2021/06/27 06:28:04;;;;;;;10.20;4.82;;;;;;;15.33;74.62;100652.06;5024602;28;20021;-67
2021/06/27 06:30:30;;;;;;;15.23;5.13;;;;;;;15.37;74.45;100655.44;5024537;28;20028;-67
2021/06/27 06:32:55;;;;;;;11.98;5.40;;;;;;;15.33;74.45;100648.56;5006944;28;20028;-67
2021/06/27 06:35:20;;;;;;;10.55;4.93;;;;;;;15.33;74.59;100649.44;5024341;28;20021;-67
2021/06/27 06:37:46;;;;;;;12.82;4.85;;;;;;;15.32;74.71;100650.31;5024541;28;20111;-66
2021/06/27 06:40:11;;;;;;;8.82;5.03;;;;;;;15.29;74.78;100645.16;5024303;28;20022;-67
2021/06/27 06:42:37;;;;;;;6.18;4.45;;;;;;;15.41;74.73;100658.84;5024450;28;20029;-67
2021/06/27 06:45:03;;;;;;;10.60;4.43;;;;;;;15.38;74.80;100646.72;5024381;28;20022;-67
2021/06/27 06:47:29;;;;;;;8.85;4.75;;;;;;;15.44;74.70;100653.53;5024266;28;20108;-67
2021/06/27 06:49:54;;;;;;;11.10;4.30;;;;;;;15.44;74.16;100643.06;5024127;28;20029;-67
2021/06/27 06:52:19;;;;;;;8.23;3.95;;;;;;;15.47;74.23;100643.00;5023878;28;20032;-67
2021/06/27 06:54:45;;;;;;;6.50;4.15;;;;;;;15.47;74.34;100641.25;5024534;28;20045;-67
2021/06/27 06:57:10;;;;;;;6.90;4.38;;;;;;;15.54;74.50;100652.41;5024129;28;20018;-67
2021/06/27 06:59:35;;;;;;;8.02;4.80;;;;;;;15.53;74.08;100644.59;5022538;28;20453;-66
2021/06/27 07:02:01;;;;;;;7.75;4.22;;;;;;;15.53;74.27;100644.59;5022759;28;20037;-66
2021/06/27 07:04:27;;;;;;;11.43;4.53;;;;;;;15.60;74.09;100647.03;5024079;28;20052;-67
2021/06/27 07:06:52;;;;;;;7.65;4.82;;;;;;;15.63;74.06;100651.31;5023848;28;20026;-68
2021/06/27 07:09:18;;;;;;;12.60;5.10;;;;;;;15.61;73.91;100645.25;5006056;28;20045;-67
2021/06/27 07:11:44;;;;;;;11.68;5.47;;;;;;;15.67;74.22;100647.69;5006119;28;20030;-67
2021/06/27 07:14:09;;;;;;;11.55;6.00;;;;;;;15.71;74.01;100658.97;5023837;28;20068;-67
2021/06/27 07:16:35;;;;;;;13.98;6.03;;;;;;;15.65;73.92;100653.88;5023820;28;20085;-67
2021/06/27 07:19:00;;;;;;;10.43;5.03;;;;;;;15.59;73.78;100661.00;5023825;28;20053;-67
2021/06/27 07:21:27;;;;;;;13.10;5.80;;;;;;;15.53;74.21;100662.94;5023608;28;20025;-67
2021/06/27 07:23:52;;;;;;;10.93;5.63;;;;;;;15.54;74.42;100672.47;5023826;28;20029;-68
2021/06/27 07:26:17;;;;;;;12.00;4.95;;;;;;;15.53;74.01;100671.63;5022351;28;20021;-66
2021/06/27 07:28:43;;;;;;;12.02;5.95;;;;;;;15.60;73.99;100672.31;5023626;28;20026;-66
2021/06/27 07:31:08;;;;;;;7.97;5.40;;;;;;;15.65;74.10;100680.94;5022856;28;20044;-66
2021/06/27 07:33:34;;;;;;;10.70;6.25;;;;;;;15.69;73.70;100672.09;5023597;28;20030;-66
2021/06/27 07:35:59;;;;;;;10.48;5.68;;;;;;;15.66;73.33;100671.31;5021866;28;20037;-67
2021/06/27 07:38:24;;;;;;;9.93;6.65;;;;;;;15.64;73.33;100667.88;5023323;28;20097;-66
2021/06/27 07:40:51;;;;;;;8.77;5.97;;;;;;;15.61;73.73;100669.66;5023333;28;20026;-67
2021/06/27 07:43:16;;;;;;;9.10;6.30;;;;;;;15.62;73.57;100681.00;5023700;28;20443;-66
2021/06/27 07:45:43;;;;;;;10.30;5.85;;;;;;;15.61;73.59;100677.53;5023595;28;20510;-66
2021/06/27 07:48:08;;;;;;;14.43;5.88;;;;;;;15.64;73.70;100684.41;5023780;28;20028;-66
2021/06/27 07:50:34;;;;;;;11.88;6.47;;;;;;;15.67;73.54;100683.50;5021835;28;20061;-66
2021/06/27 07:52:59;;;;;;;9.73;5.85;;;;;;;15.73;73.30;100683.34;5023387;28;20057;-66
2021/06/27 07:55:25;;;;;;;12.32;6.63;;;;;;;15.77;73.44;100689.38;5023503;28;20033;-66
2021/06/27 07:57:51;;;;;;;9.85;5.97;;;;;;;15.77;73.24;100695.44;5023252;28;20026;-67
2021/06/27 08:00:17;;;;;;;10.45;5.75;;;;;;;15.85;73.13;100684.78;5022730;28;20050;-67
2021/06/27 08:02:42;;;;;;;9.88;6.10;;;;;;;15.86;72.78;100687.34;5023407;28;20029;-67
2021/06/27 08:05:08;;;;;;;10.70;4.88;;;;;;;15.83;72.28;100682.19;5005509;28;20052;-67
2021/06/27 08:07:34;;;;;;;11.95;5.95;;;;;;;15.88;72.81;100689.09;5023264;28;20029;-67
2021/06/27 08:10:00;;;;;;;8.82;5.28;;;;;;;15.92;72.55;100690.72;5023348;28;20029;-67
2021/06/27 08:12:25;;;;;;;10.25;5.10;;;;;;;15.99;72.39;100689.66;5023197;28;20036;-67
2021/06/27 08:14:51;;;;;;;12.38;5.78;;;;;;;16.07;72.05;100698.19;5023363;28;20070;-67
2021/06/27 08:17:16;;;;;;;10.68;5.97;;;;;;;16.07;71.69;100703.44;5023012;28;20079;-66
2021/06/27 08:19:41;;;;;;;12.20;6.32;;;;;;;16.04;71.91;100694.81;5023119;28;20037;-66
2021/06/27 08:22:07;;;;;;;13.45;6.05;;;;;;;16.04;71.72;100707.91;5022967;28;20022;-66
2021/06/27 08:24:32;;;;;;;12.05;6.03;;;;;;;16.00;71.48;100707.13;5022991;28;20037;-67
2021/06/27 08:26:57;;;;;;;9.30;5.53;;;;;;;15.96;71.71;100706.31;5021731;28;20058;-67
2021/06/27 08:29:23;;;;;;;9.60;5.32;;;;;;;15.93;72.06;100705.50;5023057;28;20033;-65
2021/06/27 08:31:48;;;;;;;17.38;5.80;;;;;;;16.00;72.24;100706.25;5023307;28;20022;-67
2021/06/27 08:34:14;;;;;;;9.07;5.07;;;;;;;16.15;71.68;100703.22;5022848;28;20121;-67
2021/06/27 08:36:39;;;;;;;12.00;5.93;;;;;;;16.20;71.01;100711.81;5021248;28;20037;-68
2021/06/27 08:39:05;;;;;;;9.55;4.90;;;;;;;16.16;70.46;100702.34;5023242;28;20022;-68
2021/06/27 08:41:31;;;;;;;10.18;5.32;;;;;;;16.05;70.21;100704.38;5022815;28;20037;-67
2021/06/27 08:43:57;;;;;;;11.50;5.57;;;;;;;15.96;70.57;100700.19;5024485;28;20030;-67
2021/06/27 08:46:24;;;;;;;10.23;5.07;;;;;;;16.02;70.88;100707.06;5026718;28;20025;-64
2021/06/27 08:48:50;;;;;;;9.80;5.70;;;;;;;16.12;70.69;100713.78;5026594;28;20049;-67
2021/06/27 08:51:15;;;;;;;8.40;4.70;;;;;;;16.16;70.52;100709.31;5026155;28;20045;-68
2021/06/27 08:53:42;;;;;;;11.98;5.57;;;;;;;16.22;70.49;100709.16;5026358;28;20037;-67
2021/06/27 08:56:09;;;;;;;12.68;7.05;;;;;;;16.27;70.25;100704.66;5026322;28;20022;-66
2021/06/27 08:58:42;;;;;;;11.20;5.95;;;;;;;16.28;70.25;100706.38;5026352;28;20029;-67
2021/06/27 09:01:15;;;;;;;8.77;5.75;;;;;;;16.30;70.45;100701.94;5026087;28;20078;-66
2021/06/27 09:03:41;;;;;;;13.73;6.60;;;;;;;16.37;69.96;100693.91;5026294;28;20025;-64
2021/06/27 09:06:09;;;;;;;13.27;6.40;;;;;;;16.48;69.52;100704.97;5026136;28;20045;-59
2021/06/27 09:08:34;;;;;;;17.98;8.02;;;;;;;16.52;69.30;100685.63;5026385;28;20033;-58
2021/06/27 09:11:14;;;;;;;15.52;7.63;;;;;;;16.45;69.41;100681.47;5025939;28;20033;-59
2021/06/27 09:13:44;;;;;;;13.25;8.13;;;;;;;16.59;69.21;100695.03;5026257;28;20029;-59
2021/06/27 09:16:22;;;;;;;15.20;7.25;;;;;;;16.68;69.18;100699.13;5025880;28;20060;-58
2021/06/27 09:18:48;;;;;;;17.95;8.55;;;;;;;16.84;69.41;100703.91;5025820;28;20026;-58
2021/06/27 09:21:14;;;;;;;12.77;8.10;;;;;;;16.97;68.91;100691.28;5025301;28;20525;-59
2021/06/27 09:23:42;;;;;;;14.35;9.55;;;;;;;17.11;68.86;100695.31;5025812;28;20045;-59
2021/06/27 09:26:08;;;;;;;19.08;10.07;;;;;;;17.20;68.03;100693.22;5025800;28;20033;-59
2021/06/27 09:28:48;;;;;;;14.82;9.45;;;;;;;17.28;67.62;100694.75;5025818;28;20026;-59
2021/06/27 09:31:34;;;;;;;15.95;10.02;;;;;;;17.21;67.07;100694.09;5025578;28;20083;-59
2021/06/27 09:34:01;;;;;;;12.85;9.48;;;;;;;17.09;67.56;100688.31;5025744;28;20123;-59
2021/06/27 09:36:27;;;;;;;21.02;10.68;;;;;;;17.20;67.63;100692.38;5025237;28;20375;-60
2021/06/27 09:38:54;;;;;;;15.57;10.35;;;;;;;17.23;67.44;100694.91;5024495;28;20030;-59
2021/06/27 09:41:29;;;;;;;16.17;11.43;;;;;;;17.11;67.31;100675.16;5025482;28;20029;-59
2021/06/27 09:43:57;;;;;;;19.60;10.65;;;;;;;17.19;67.25;100695.88;5025576;28;20032;-58
2021/06/27 09:46:39;;;;;;;21.52;11.07;;;;;;;17.11;67.65;100708.41;5025327;28;20022;-59
2021/06/27 09:49:24;;;;;;;18.90;11.57;;;;;;;17.20;67.92;100708.13;5025234;28;20048;-69
2021/06/27 09:51:58;;;;;;;21.92;12.73;;;;;;;17.30;66.94;100701.66;5025092;28;20081;-59
2021/06/27 09:54:26;;;;;;;18.55;11.27;;;;;;;17.32;66.33;100699.84;5024719;28;20033;-60
2021/06/27 09:56:52;;;;;;;15.15;11.38;;;;;;;17.32;66.60;100704.22;5007273;28;20085;-59
2021/06/27 09:59:31;;;;;;;17.23;10.88;;;;;;;17.47;66.44;100700.28;5025024;28;20049;-59
2021/06/27 10:01:57;;;;;;;14.32;10.52;;;;;;;17.65;65.59;100700.56;5024957;28;20347;-60
2021/06/27 10:04:33;;;;;;;17.23;10.85;;;;;;;17.88;65.51;100699.78;5024857;28;20025;-59
2021/06/27 10:07:00;;;;;;;15.68;11.38;;;;;;;18.05;64.97;100701.81;5024911;28;20025;-59
2021/06/27 10:09:31;;;;;;;18.33;10.75;;;;;;;18.14;63.82;100702.44;5025042;28;20045;-59
2021/06/27 10:12:05;;;;;;;21.20;10.30;;;;;;;18.20;64.06;100702.22;5023601;28;20026;-58
2021/06/27 10:14:55;;;;;;;14.48;10.95;;;;;;;18.25;63.75;100712.56;5024836;28;20061;-60
2021/06/27 10:17:23;;;;;;;16.90;10.02;;;;;;;18.25;63.48;100710.81;5024661;28;20360;-59
2021/06/27 10:19:49;;;;;;;17.20;10.30;;;;;;;18.15;63.33;100698.88;5024697;28;20088;-61
2021/06/27 10:22:16;;;;;;;18.70;10.40;;;;;;;18.07;63.61;100699.13;5024791;28;20018;-60
2021/06/27 10:24:42;;;;;;;16.65;11.00;;;;;;;17.99;63.62;100702.03;5024634;28;20094;-60
2021/06/27 10:27:08;;;;;;;16.08;11.18;;;;;;;17.89;64.11;100708.53;5024702;28;20033;-60
2021/06/27 10:29:43;;;;;;;17.63;8.75;;;;;;;17.71;63.88;100700.38;5024484;28;20056;-60
2021/06/27 10:32:09;;;;;;;18.70;9.27;;;;;;;17.69;63.94;100704.78;5023218;28;20025;-59
2021/06/27 10:34:35;;;;;;;18.35;9.35;;;;;;;17.71;64.24;100698.59;5024616;28;20025;-60
2021/06/27 10:37:19;;;;;;;15.52;9.50;;;;;;;17.80;63.83;100699.19;5024152;28;20105;-60
2021/06/27 10:40:03;;;;;;;14.98;9.25;;;;;;;17.74;64.09;100699.38;5024448;28;20017;-60
2021/06/27 10:42:47;;;;;;;16.58;9.60;;;;;;;17.76;64.45;100702.84;5024236;28;20037;-60
2021/06/27 10:45:12;;;;;;;19.00;7.80;;;;;;;17.73;64.18;100698.56;5024231;28;20478;-59
2021/06/27 10:47:37;;;;;;;13.98;8.50;;;;;;;17.68;64.43;100695.22;5024229;28;20026;-61
2021/06/27 10:50:05;;;;;;;11.85;8.30;;;;;;;17.65;64.60;100696.16;5023954;28;20526;-59
2021/06/27 10:52:51;;;;;;;12.07;7.03;;;;;;;17.66;64.47;100697.91;5023696;28;20018;-60
2021/06/27 10:55:23;;;;;;;12.65;6.95;;;;;;;17.73;64.65;100698.56;5016595;28;20567;-59
2021/06/27 10:57:57;;;;;;;13.23;6.63;;;;;;;17.88;64.05;100685.78;5023658;28;20094;-59
2021/06/27 11:00:25;;;;;;;12.15;6.43;;;;;;;18.03;63.80;100687.03;5023492;28;20052;-61
2021/06/27 11:02:50;;;;;;;9.88;6.38;;;;;;;18.25;63.31;100678.41;5023807;28;20036;-61
2021/06/27 11:05:31;;;;;;;10.38;6.22;;;;;;;18.45;62.79;100685.56;5023566;28;20053;-61
2021/06/27 11:07:56;;;;;;;12.13;6.75;;;;;;;18.65;62.46;100686.56;5023496;28;20020;-64
2021/06/27 11:10:21;;;;;;;19.10;8.88;;;;;;;18.70;61.36;100689.91;5023655;28;20099;-70
2021/06/27 11:12:56;;;;;;;15.85;10.13;;;;;;;18.56;60.96;100695.69;5023585;28;20030;-57
2021/06/27 11:15:23;;;;;;;13.35;9.35;;;;;;;18.43;61.22;100700.53;5023502;28;20478;-58
2021/06/27 11:17:53;;;;;;;14.15;9.50;;;;;;;18.29;61.34;100696.63;5023558;28;20466;-60
2021/06/27 11:20:20;;;;;;;14.27;10.02;;;;;;;18.24;61.47;100698.59;5022412;28;20028;-60
2021/06/27 11:22:50;;;;;;;13.18;9.30;;;;;;;18.27;61.34;100697.59;5023476;28;20026;-58